createdAt,value
2023-01-26T00:01:30.531Z,98823.31
2023-01-26T00:03:58.508Z,98824.16
2023-01-26T00:06:26.308Z,98822.47
2023-01-26T00:08:57.128Z,98821.25
2023-01-26T00:11:27.858Z,98831.38
2023-01-26T00:13:56.139Z,98829.16
2023-01-26T00:16:23.721Z,98815.31
2023-01-26T00:18:51.083Z,98808.88
2023-01-26T00:21:21.101Z,98811.00
2023-01-26T00:23:49.185Z,98798.66
2023-01-26T00:26:27.100Z,98803.22
2023-01-26T00:28:54.795Z,98792.78
2023-01-26T00:31:23.419Z,98789.22
2023-01-26T00:33:51.942Z,98799.63
2023-01-26T00:36:19.757Z,98796.38
2023-01-26T00:38:47.705Z,98787.56
2023-01-26T00:41:33.669Z,98779.63
2023-01-26T00:44:01.361Z,98768.31
2023-01-26T00:46:28.844Z,98767.91
2023-01-26T00:48:56.257Z,98765.84
2023-01-26T00:51:23.967Z,98776.84
2023-01-26T00:53:51.337Z,98772.03
2023-01-26T00:56:19.907Z,98782.63
2023-01-26T00:58:47.496Z,98778.81
2023-01-26T01:01:14.926Z,98771.44
2023-01-26T01:03:43.348Z,98769.00
2023-01-26T01:06:10.727Z,98759.81
2023-01-26T01:08:38.172Z,98759.72
2023-01-26T01:11:11.580Z,98754.81
2023-01-26T01:13:39.461Z,98763.41
2023-01-26T01:16:13.258Z,98760.38
2023-01-26T01:18:40.694Z,98753.81
2023-01-26T01:21:18.416Z,98757.97
2023-01-26T01:23:45.954Z,98754.06
2023-01-26T01:26:14.559Z,98764.06
2023-01-26T01:28:43.449Z,98758.59
2023-01-26T01:31:16.734Z,98753.56
2023-01-26T01:33:44.476Z,98748.47
2023-01-26T01:36:15.639Z,98749.00
2023-01-26T01:38:44.637Z,98750.97
2023-01-26T01:41:16.216Z,98755.38
2023-01-26T01:43:43.756Z,98752.09
2023-01-26T01:46:30.923Z,98744.94
2023-01-26T01:49:07.542Z,98746.63
2023-01-26T01:51:35.850Z,98751.59
2023-01-26T01:54:15.521Z,98746.84
2023-01-26T01:56:50.662Z,98745.63
2023-01-26T01:59:20.644Z,98750.47
2023-01-26T02:01:51.565Z,98738.88
2023-01-26T02:04:21.839Z,98744.50
2023-01-26T02:06:56.163Z,98745.69
2023-01-26T02:09:55.019Z,98738.94
2023-01-26T02:12:29.159Z,98734.72
2023-01-26T02:14:57.955Z,98742.06
2023-01-26T02:17:26.834Z,98743.75
2023-01-26T02:20:21.678Z,98739.09
2023-01-26T02:23:01.003Z,98735.25
2023-01-26T02:25:40.775Z,98728.75
2023-01-26T02:28:08.104Z,98721.53
2023-01-26T02:30:35.485Z,98725.91
2023-01-26T02:33:02.893Z,98723.25
2023-01-26T02:35:30.660Z,98708.25
2023-01-26T02:37:59.820Z,98704.84
2023-01-26T02:40:53.901Z,98705.19
2023-01-26T02:43:24.460Z,98705.09
2023-01-26T02:45:52.190Z,98706.78
2023-01-26T02:48:38.135Z,98701.78
2023-01-26T02:51:05.616Z,98699.69
2023-01-26T02:53:33.363Z,98692.47
2023-01-26T02:56:00.728Z,98682.09
2023-01-26T02:58:28.219Z,98683.47
2023-01-26T03:00:55.582Z,98683.63
2023-01-26T03:03:41.463Z,98691.28
2023-01-26T03:06:10.853Z,98684.84
2023-01-26T03:08:39.056Z,98680.59
2023-01-26T03:11:07.670Z,98685.06
2023-01-26T03:13:35.427Z,98686.84
2023-01-26T03:16:06.951Z,98675.69
2023-01-26T03:18:54.475Z,98677.19
2023-01-26T03:21:43.271Z,98667.50
2023-01-26T03:24:33.133Z,98666.88
2023-01-26T03:27:20.962Z,98666.09
2023-01-26T03:29:48.554Z,98665.38
2023-01-26T03:32:16.533Z,98664.16
2023-01-26T03:34:43.997Z,98669.47
2023-01-26T03:37:11.956Z,98664.81
2023-01-26T03:40:08.323Z,98666.28
2023-01-26T03:42:55.039Z,98669.25
2023-01-26T03:45:41.658Z,98670.13
2023-01-26T03:48:30.812Z,98673.63
2023-01-26T03:51:17.946Z,98665.00
2023-01-26T03:54:04.034Z,98675.34
2023-01-26T03:56:32.690Z,98678.19
2023-01-26T03:59:11.180Z,98681.22
2023-01-26T04:02:03.927Z,98680.28
2023-01-26T04:04:50.773Z,98669.56
2023-01-26T04:07:38.618Z,98671.50
2023-01-26T04:10:06.642Z,98671.13
2023-01-26T04:12:34.278Z,98669.13
2023-01-26T04:15:46.389Z,98664.66
2023-01-26T04:18:32.325Z,98667.53
2023-01-26T04:21:22.278Z,98667.16
2023-01-26T04:23:49.792Z,98668.19
2023-01-26T04:26:17.217Z,98661.31
2023-01-26T04:28:44.589Z,98674.63
2023-01-26T04:31:11.974Z,98672.72
2023-01-26T04:33:39.619Z,98668.91
2023-01-26T04:36:09.078Z,98655.84
2023-01-26T04:38:40.142Z,98656.00
2023-01-26T04:41:07.622Z,98650.28
2023-01-26T04:43:41.429Z,98650.53
2023-01-26T04:46:09.862Z,98639.47
2023-01-26T04:48:39.581Z,98651.47
2023-01-26T04:51:11.623Z,98649.72
2023-01-26T04:53:41.006Z,98647.09
2023-01-26T04:56:18.139Z,98645.09
2023-01-26T04:58:45.991Z,98649.16
2023-01-26T05:01:13.390Z,98649.50
2023-01-26T05:03:41.011Z,98654.28
2023-01-26T05:06:08.055Z,98654.03
2023-01-26T05:08:36.463Z,98646.50
2023-01-26T05:11:03.976Z,98641.91
2023-01-26T05:14:10.156Z,98652.25
2023-01-26T05:17:09.702Z,98645.84
2023-01-26T05:19:40.004Z,98649.06
2023-01-26T05:22:13.279Z,98648.28
2023-01-26T05:24:49.406Z,98647.69
2023-01-26T05:27:39.726Z,98651.16
2023-01-26T05:30:10.950Z,98655.44
2023-01-26T05:32:40.087Z,98653.13
2023-01-26T05:35:08.310Z,98660.41
2023-01-26T05:37:36.156Z,98658.81
2023-01-26T05:40:04.372Z,98658.28
2023-01-26T05:42:32.660Z,98654.13
2023-01-26T05:45:09.301Z,98654.03
2023-01-26T05:47:38.861Z,98651.16
2023-01-26T05:50:06.879Z,98662.56
2023-01-26T05:52:35.285Z,98662.34
2023-01-26T05:55:03.229Z,98660.19
2023-01-26T05:57:30.563Z,98660.66
2023-01-26T06:00:08.649Z,98652.75
2023-01-26T06:02:48.593Z,98659.94
2023-01-26T06:05:17.243Z,98660.59
2023-01-26T06:07:45.767Z,98662.28
2023-01-26T06:10:19.965Z,98661.06
2023-01-26T06:13:16.375Z,98655.34
2023-01-26T06:16:03.960Z,98646.09
2023-01-26T06:18:31.535Z,98649.78
2023-01-26T06:21:01.042Z,98659.28
2023-01-26T06:23:28.575Z,98653.88
2023-01-26T06:26:02.366Z,98663.69
2023-01-26T06:28:31.559Z,98666.31
2023-01-26T06:31:03.745Z,98664.09
2023-01-26T06:33:34.334Z,98663.53
2023-01-26T06:36:07.255Z,98652.22
2023-01-26T06:38:34.748Z,98654.06
2023-01-26T06:41:03.809Z,98665.69
2023-01-26T06:43:32.829Z,98658.09
2023-01-26T06:46:01.322Z,98658.59
2023-01-26T06:48:30.882Z,98661.84
2023-01-26T06:51:14.252Z,98660.16
2023-01-26T06:53:44.476Z,98662.97
2023-01-26T06:56:30.561Z,98659.78
2023-01-26T06:59:16.448Z,98656.44
2023-01-26T07:02:20.733Z,98655.38
2023-01-26T07:04:49.131Z,98658.47
2023-01-26T07:07:16.542Z,98654.41
2023-01-26T07:09:43.912Z,98652.72
2023-01-26T07:12:11.215Z,98658.66
2023-01-26T07:14:38.614Z,98664.41
2023-01-26T07:17:06.000Z,98659.03
2023-01-26T07:19:33.892Z,98663.66
2023-01-26T07:22:01.571Z,98668.41
2023-01-26T07:24:29.529Z,98673.88
2023-01-26T07:26:57.048Z,98677.13
2023-01-26T07:29:24.404Z,98680.47
2023-01-26T07:31:52.089Z,98688.69
2023-01-26T07:34:19.497Z,98678.03
2023-01-26T07:36:46.843Z,98677.94
2023-01-26T07:39:14.156Z,98677.34
2023-01-26T07:41:41.547Z,98674.78
2023-01-26T07:44:33.488Z,98675.53
2023-01-26T07:47:00.838Z,98679.59
2023-01-26T07:49:28.303Z,98668.69
2023-01-26T07:51:55.652Z,98681.50
2023-01-26T07:54:23.124Z,98681.66
2023-01-26T07:56:54.583Z,98679.03
2023-01-26T07:59:22.653Z,98673.22
2023-01-26T08:01:50.834Z,98671.75
2023-01-26T08:04:18.458Z,98675.00
2023-01-26T08:06:45.770Z,98672.03
2023-01-26T08:09:13.151Z,98678.94
2023-01-26T08:11:40.490Z,98672.19
2023-01-26T08:14:07.822Z,98674.81
2023-01-26T08:16:35.259Z,98673.16
2023-01-26T08:19:03.183Z,98661.53
2023-01-26T08:21:30.648Z,98654.53
2023-01-26T08:24:01.835Z,98652.56
2023-01-26T08:26:29.718Z,98654.63
2023-01-26T08:28:57.112Z,98658.53
2023-01-26T08:31:25.449Z,98657.72
2023-01-26T08:33:54.302Z,98649.69
2023-01-26T08:36:23.200Z,98657.19
2023-01-26T08:38:51.551Z,98654.88
2023-01-26T08:41:19.174Z,98662.63
2023-01-26T08:43:46.584Z,98659.19
2023-01-26T08:46:14.875Z,98651.53
2023-01-26T08:48:42.301Z,98654.41
2023-01-26T08:51:09.754Z,98656.56
2023-01-26T08:53:37.845Z,98653.81
2023-01-26T08:56:07.112Z,98643.94
2023-01-26T08:58:35.226Z,98643.28
2023-01-26T09:01:11.642Z,98648.00
2023-01-26T09:03:39.215Z,98645.34
2023-01-26T09:06:08.141Z,98651.88
2023-01-26T09:08:35.626Z,98649.94
2023-01-26T09:11:04.848Z,98646.59
2023-01-26T09:13:32.563Z,98641.84
2023-01-26T09:16:02.985Z,98636.44
2023-01-26T09:18:30.302Z,98652.59
2023-01-26T09:21:04.621Z,98655.09
2023-01-26T09:23:33.244Z,98660.22
2023-01-26T09:26:00.806Z,98656.66
2023-01-26T09:28:28.471Z,98658.53
2023-01-26T09:30:56.113Z,98666.28
2023-01-26T09:33:23.556Z,98664.72
2023-01-26T09:35:50.895Z,98662.13
2023-01-26T09:38:18.205Z,98664.22
2023-01-26T09:41:05.027Z,98671.00
2023-01-26T09:43:46.082Z,98666.00
2023-01-26T09:46:29.395Z,98666.38
2023-01-26T09:49:07.123Z,98674.09
2023-01-26T09:51:39.279Z,98666.38
2023-01-26T09:54:26.508Z,98660.13
2023-01-26T09:56:55.603Z,98653.53
2023-01-26T09:59:37.343Z,98654.06
2023-01-26T10:02:18.876Z,98660.31
2023-01-26T10:04:50.218Z,98653.81
2023-01-26T10:07:17.562Z,98655.94
2023-01-26T10:09:51.238Z,98666.38
2023-01-26T10:12:36.747Z,98659.66
2023-01-26T10:15:43.154Z,98665.53
2023-01-26T10:18:26.590Z,98649.91
2023-01-26T10:20:56.026Z,98654.47
2023-01-26T10:23:31.353Z,98655.16
2023-01-26T10:26:18.002Z,98648.53
2023-01-26T10:28:48.543Z,98655.44
2023-01-26T10:31:19.420Z,98661.31
2023-01-26T10:34:15.020Z,98658.47
2023-01-26T10:36:46.587Z,98656.34
2023-01-26T10:39:16.961Z,98653.50
2023-01-26T10:42:00.065Z,98643.59
2023-01-26T10:44:36.169Z,98644.81
2023-01-26T10:47:24.596Z,98649.66
2023-01-26T10:49:52.013Z,98650.84
2023-01-26T10:52:27.438Z,98655.44
2023-01-26T10:55:20.528Z,98651.78
2023-01-26T10:57:47.874Z,98646.91
2023-01-26T11:00:21.635Z,98647.34
2023-01-26T11:02:53.881Z,98645.63
2023-01-26T11:05:20.949Z,98642.47
2023-01-26T11:07:55.274Z,98637.66
2023-01-26T11:10:35.203Z,98637.94
2023-01-26T11:13:17.735Z,98628.72
2023-01-26T11:15:47.968Z,98618.44
2023-01-26T11:18:49.075Z,98626.94
2023-01-26T11:21:22.388Z,98628.41
2023-01-26T11:23:57.892Z,98638.72
2023-01-26T11:27:07.211Z,98633.41
2023-01-26T11:30:12.422Z,98633.38
2023-01-26T11:33:01.718Z,98624.53
2023-01-26T11:35:54.257Z,98633.19
2023-01-26T11:38:32.981Z,98619.25
2023-01-26T11:41:13.833Z,98614.75
2023-01-26T11:44:23.939Z,98617.47
2023-01-26T11:47:13.279Z,98619.53
2023-01-26T11:50:19.909Z,98620.31
2023-01-26T11:53:03.231Z,98610.63
2023-01-26T11:56:05.309Z,98610.13
2023-01-26T11:58:51.472Z,98607.16
2023-01-26T12:01:31.682Z,98603.34
2023-01-26T12:03:59.056Z,98597.69
2023-01-26T12:06:49.051Z,98593.09
2023-01-26T12:09:26.986Z,98590.44
2023-01-26T12:12:01.675Z,98585.97
2023-01-26T12:14:50.810Z,98590.13
2023-01-26T12:17:35.876Z,98590.06
2023-01-26T12:20:46.457Z,98579.56
2023-01-26T12:23:20.405Z,98573.94
2023-01-26T12:25:55.898Z,98574.94
2023-01-26T12:28:55.871Z,98576.84
2023-01-26T12:31:50.369Z,98574.16
2023-01-26T12:34:33.339Z,98569.06
2023-01-26T12:37:05.043Z,98569.41
2023-01-26T12:40:14.182Z,98564.00
2023-01-26T12:43:00.602Z,98555.63
2023-01-26T12:45:37.392Z,98551.66
2023-01-26T12:48:11.423Z,98546.47
2023-01-26T12:50:55.277Z,98547.41
2023-01-26T12:53:39.988Z,98545.50
2023-01-26T12:56:31.859Z,98548.81
2023-01-26T12:59:01.271Z,98554.38
2023-01-26T13:01:40.093Z,98548.97
2023-01-26T13:04:13.072Z,98544.34
2023-01-26T13:06:40.374Z,98545.16
2023-01-26T13:09:21.496Z,98535.44
2023-01-26T13:11:53.034Z,98537.56
2023-01-26T13:14:37.565Z,98535.25
2023-01-26T13:17:17.300Z,98542.22
2023-01-26T13:19:44.554Z,98534.41
2023-01-26T13:22:23.703Z,98536.59
2023-01-26T13:24:58.097Z,98530.16
2023-01-26T13:27:32.455Z,98536.03
2023-01-26T13:30:00.338Z,98528.44
2023-01-26T13:32:27.534Z,98536.84
2023-01-26T13:35:00.755Z,98527.72
2023-01-26T13:37:42.872Z,98526.75
2023-01-26T13:40:32.095Z,98526.38
2023-01-26T13:43:26.244Z,98535.72
2023-01-26T13:46:17.749Z,98534.44
2023-01-26T13:48:45.313Z,98535.38
2023-01-26T13:51:43.193Z,98542.88
2023-01-26T13:54:15.302Z,98540.53
2023-01-26T13:56:59.617Z,98542.94
2023-01-26T13:59:27.138Z,98545.09
2023-01-26T14:01:58.085Z,98536.59
2023-01-26T14:04:31.253Z,98532.84
2023-01-26T14:07:17.763Z,98544.84
2023-01-26T14:09:51.627Z,98546.81
2023-01-26T14:12:29.402Z,98543.88
2023-01-26T14:15:03.709Z,98550.13
2023-01-26T14:17:54.407Z,98533.28
2023-01-26T14:20:45.519Z,98537.31
2023-01-26T14:23:21.788Z,98535.22
2023-01-26T14:26:29.054Z,98543.00
2023-01-26T14:28:56.386Z,98535.44
2023-01-26T14:31:25.224Z,98544.81
2023-01-26T14:34:09.083Z,98555.22
2023-01-26T14:36:39.289Z,98553.69
2023-01-26T14:39:19.494Z,98556.75
2023-01-26T14:41:47.563Z,98557.47
2023-01-26T14:44:17.991Z,98562.66
2023-01-26T14:46:53.131Z,98558.16
2023-01-26T14:49:33.710Z,98567.50
2023-01-26T14:52:01.873Z,98563.88
2023-01-26T14:54:39.508Z,98567.31
2023-01-26T14:57:09.532Z,98562.66
2023-01-26T14:59:40.428Z,98570.44
2023-01-26T15:02:13.495Z,98573.91
2023-01-26T15:04:41.510Z,98563.81
2023-01-26T15:07:41.698Z,98563.34
2023-01-26T15:10:26.140Z,98572.91
2023-01-26T15:13:14.915Z,98570.75
2023-01-26T15:15:48.996Z,98578.59
2023-01-26T15:18:20.889Z,98583.53
2023-01-26T15:21:01.053Z,98579.72
2023-01-26T15:23:28.320Z,98577.03
2023-01-26T15:25:55.807Z,98586.50
2023-01-26T15:28:26.415Z,98577.63
2023-01-26T15:30:56.573Z,98589.84
2023-01-26T15:33:49.548Z,98585.88
2023-01-26T15:36:27.481Z,98582.03
2023-01-26T15:39:15.097Z,98579.66
2023-01-26T15:41:45.153Z,98577.72
2023-01-26T15:44:18.144Z,98580.56
2023-01-26T15:46:45.553Z,98569.91
2023-01-26T15:49:14.231Z,98571.13
2023-01-26T15:51:41.662Z,98573.88
2023-01-26T15:54:14.138Z,98577.81
2023-01-26T16:01:18.325Z,98583.28
2023-01-26T16:04:35.255Z,98584.50
2023-01-26T16:07:16.933Z,98588.66
2023-01-26T16:10:05.365Z,98584.97
2023-01-26T16:15:53.872Z,98588.69
2023-01-26T16:18:21.452Z,98590.19
2023-01-26T16:20:49.911Z,98590.88
2023-01-26T16:23:27.332Z,98589.78
2023-01-26T16:25:55.361Z,98587.13
2023-01-26T16:28:59.229Z,98584.59
2023-01-26T16:31:48.411Z,98587.53
2023-01-26T16:34:15.873Z,98588.88
2023-01-26T16:36:43.235Z,98588.50
2023-01-26T16:39:13.328Z,98587.31
2023-01-26T16:41:40.840Z,98586.38
2023-01-26T16:44:14.437Z,98590.28
2023-01-26T16:46:42.872Z,98595.03
2023-01-26T16:49:15.922Z,98585.13
2023-01-26T16:51:44.075Z,98589.91
2023-01-26T16:54:12.504Z,98584.19
2023-01-26T16:56:40.105Z,98584.00
2023-01-26T16:59:07.398Z,98593.78
2023-01-26T17:01:37.875Z,98588.75
2023-01-26T17:04:05.477Z,98583.75
2023-01-26T17:06:33.054Z,98584.97
2023-01-26T17:09:30.583Z,98582.63
2023-01-26T17:12:15.510Z,98580.66
2023-01-26T17:14:43.341Z,98583.09
2023-01-26T17:17:11.256Z,98589.97
2023-01-26T17:19:38.610Z,98591.88
2023-01-26T17:22:08.969Z,98592.81
2023-01-26T17:24:36.369Z,98591.03
2023-01-26T17:27:03.740Z,98604.09
2023-01-26T17:29:31.086Z,98601.59
2023-01-26T17:31:59.338Z,98593.78
2023-01-26T17:34:26.782Z,98591.16
2023-01-26T17:36:54.642Z,98581.28
2023-01-26T17:39:23.961Z,98586.25
2023-01-26T17:41:51.308Z,98593.78
2023-01-26T17:44:18.772Z,98594.41
2023-01-26T17:46:46.155Z,98585.38
2023-01-26T17:49:13.514Z,98579.41
2023-01-26T17:51:41.474Z,98584.22
2023-01-26T17:54:08.816Z,98587.06
2023-01-26T17:56:36.183Z,98590.69
2023-01-26T17:59:03.761Z,98594.16
2023-01-26T18:01:31.457Z,98596.69
2023-01-26T18:03:58.987Z,98596.22
2023-01-26T18:06:26.309Z,98583.97
2023-01-26T18:08:54.340Z,98597.13
2023-01-26T18:11:21.946Z,98589.66
2023-01-26T18:13:50.555Z,98596.78
2023-01-26T18:16:19.677Z,98591.84
2023-01-26T18:18:47.936Z,98594.38
2023-01-26T18:21:24.947Z,98595.69
2023-01-26T18:23:55.973Z,98589.06
2023-01-26T18:26:26.884Z,98589.03
2023-01-26T18:28:54.781Z,98598.28
2023-01-26T18:31:27.563Z,98592.63
2023-01-26T18:33:57.471Z,98584.28
2023-01-26T18:36:25.742Z,98593.31
2023-01-26T18:38:56.196Z,98594.03
2023-01-26T18:41:24.179Z,98601.00
2023-01-26T18:43:55.550Z,98602.44
2023-01-26T18:46:23.424Z,98587.84
2023-01-26T18:48:54.230Z,98598.28
2023-01-26T18:51:22.678Z,98596.16
2023-01-26T18:53:50.159Z,98593.78
2023-01-26T18:56:17.752Z,98590.94
2023-01-26T18:58:45.143Z,98595.91
2023-01-26T19:01:15.049Z,98599.13
2023-01-26T19:03:47.229Z,98603.16
2023-01-26T19:06:19.646Z,98593.66
2023-01-26T19:08:47.390Z,98596.41
2023-01-26T19:11:15.265Z,98586.66
2023-01-26T19:13:44.150Z,98597.75
2023-01-26T19:16:11.772Z,98601.59
2023-01-26T19:18:39.492Z,98603.28
2023-01-26T19:21:06.827Z,98605.91
2023-01-26T19:23:34.207Z,98597.56
2023-01-26T19:26:01.565Z,98593.31
2023-01-26T19:28:28.959Z,98585.50
2023-01-26T19:31:03.428Z,98590.72
2023-01-26T19:33:31.711Z,98595.44
2023-01-26T19:36:00.268Z,98587.84
2023-01-26T19:38:27.691Z,98601.84
2023-01-26T19:40:55.450Z,98597.00
2023-01-26T19:43:23.835Z,98596.00
2023-01-26T19:45:53.792Z,98594.97
2023-01-26T19:48:22.526Z,98596.88
2023-01-26T19:51:05.331Z,98591.78
2023-01-26T19:53:34.758Z,98594.75
2023-01-26T19:56:15.891Z,98585.84
2023-01-26T19:58:44.456Z,98591.78
2023-01-26T20:01:12.823Z,98588.81
2023-01-26T20:03:40.525Z,98596.16
2023-01-26T20:06:15.616Z,98591.88
2023-01-26T20:08:43.435Z,98596.88
2023-01-26T20:11:11.434Z,98603.75
2023-01-26T20:13:38.781Z,98596.38
2023-01-26T20:16:09.962Z,98597.72
2023-01-26T20:18:38.227Z,98597.81
2023-01-26T20:21:07.112Z,98596.03
2023-01-26T20:23:35.088Z,98607.06
2023-01-26T20:26:09.784Z,98607.06
2023-01-26T20:28:38.021Z,98600.91
2023-01-26T20:31:21.536Z,98606.81
2023-01-26T20:33:49.980Z,98606.34
2023-01-26T20:36:20.418Z,98614.78
2023-01-26T20:38:49.596Z,98605.88
2023-01-26T20:41:23.553Z,98601.97
2023-01-26T20:43:59.683Z,98599.25
2023-01-26T20:46:31.447Z,98602.69
2023-01-26T20:48:59.120Z,98587.84
2023-01-26T20:51:31.090Z,98601.81
2023-01-26T20:53:58.929Z,98601.50
2023-01-26T20:56:26.447Z,98600.53
2023-01-26T20:58:55.749Z,98607.66
2023-01-26T21:01:24.417Z,98599.94
2023-01-26T21:03:52.407Z,98607.03
2023-01-26T21:06:21.997Z,98590.69
2023-01-26T21:08:52.283Z,98599.38
2023-01-26T21:11:19.657Z,98595.94
2023-01-26T21:13:46.981Z,98599.97
2023-01-26T21:16:16.641Z,98607.53
2023-01-26T21:18:45.323Z,98598.28
2023-01-26T21:21:15.321Z,98593.31
2023-01-26T21:23:42.662Z,98588.09
2023-01-26T21:26:21.847Z,98590.25
2023-01-26T21:28:53.892Z,98584.03
2023-01-26T21:31:22.624Z,98587.03
2023-01-26T21:33:50.666Z,98582.53
2023-01-26T21:36:20.093Z,98580.13
2023-01-26T21:38:49.412Z,98573.47
2023-01-26T21:41:38.690Z,98578.94
2023-01-26T21:44:13.225Z,98572.91
2023-01-26T21:46:40.803Z,98574.56
2023-01-26T21:49:09.697Z,98574.53
2023-01-26T21:51:56.051Z,98571.47
2023-01-26T21:54:23.536Z,98575.16
2023-01-26T21:56:51.448Z,98573.38
2023-01-26T21:59:35.170Z,98568.88
2023-01-26T22:02:15.569Z,98566.88
2023-01-26T22:04:51.274Z,98574.91
2023-01-26T22:07:28.887Z,98580.47
2023-01-26T22:10:04.548Z,98574.44
2023-01-26T22:12:50.351Z,98577.66
2023-01-26T22:15:50.352Z,98574.53
2023-01-26T22:18:52.605Z,98578.38
2023-01-26T22:21:26.625Z,98560.69
2023-01-26T22:23:55.193Z,98571.03
2023-01-26T22:26:42.642Z,98568.25
2023-01-26T22:29:17.979Z,98573.16
2023-01-26T22:35:09.801Z,98579.16
2023-01-26T22:37:44.236Z,98572.66
2023-01-26T22:40:22.809Z,98562.22
2023-01-26T22:43:13.548Z,98566.88
2023-01-26T22:45:50.758Z,98566.28
2023-01-26T22:48:40.694Z,98562.84
2023-01-26T22:54:26.630Z,98553.22
2023-01-26T22:56:54.426Z,98548.59
2023-01-26T22:59:21.782Z,98547.28
2023-01-26T23:01:49.637Z,98554.28
2023-01-26T23:04:23.215Z,98547.53
2023-01-26T23:06:50.676Z,98544.66
2023-01-26T23:09:18.022Z,98535.41
2023-01-26T23:12:01.516Z,98538.28
2023-01-26T23:14:29.993Z,98535.88
2023-01-26T23:16:57.770Z,98538.50
2023-01-26T23:19:25.317Z,98537.94
2023-01-26T23:21:52.663Z,98540.16
2023-01-26T23:24:20.133Z,98539.56
2023-01-26T23:26:47.815Z,98539.31
2023-01-26T23:29:15.279Z,98531.38
2023-01-26T23:31:42.238Z,98531.16
2023-01-26T23:34:09.608Z,98531.38
2023-01-26T23:36:36.572Z,98526.66
2023-01-26T23:39:03.984Z,98526.41
2023-01-26T23:41:31.381Z,98524.63
2023-01-26T23:43:58.715Z,98526.03
2023-01-26T23:46:25.760Z,98525.31
2023-01-26T23:48:53.116Z,98513.00
2023-01-26T23:51:20.110Z,98517.81
2023-01-26T23:53:47.139Z,98515.84
2023-01-26T23:56:16.957Z,98512.09
2023-01-26T23:58:44.135Z,98517.47
